sensor_id;sensor_type;location;lat;lon;timestamp;P1;durP1;ratioP1;P2;durP2;ratioP2
6356;SDS011;3211;53.452;-2.264;2023-05-16T00:02:12;6.53;;;2.50;;
6356;SDS011;3211;53.452;-2.264;2023-05-16T00:04:55;13.00;;;2.90;;
6356;SDS011;3211;53.452;-2.264;2023-05-16T00:07:37;7.70;;;2.27;;
6356;SDS011;3211;53.452;-2.264;2023-05-16T00:10:19;6.33;;;2.70;;
6356;SDS011;3211;53.452;-2.264;2023-05-16T00:13:01;7.80;;;2.80;;
6356;SDS011;3211;53.452;-2.264;2023-05-16T00:15:43;12.33;;;2.87;;
6356;SDS011;3211;53.452;-2.264;2023-05-16T00:18:26;12.30;;;2.30;;
6356;SDS011;3211;53.452;-2.264;2023-05-16T00:21:09;8.07;;;2.40;;
6356;SDS011;3211;53.452;-2.264;2023-05-16T00:23:51;10.70;;;2.27;;
6356;SDS011;3211;53.452;-2.264;2023-05-16T00:26:33;9.27;;;2.50;;
6356;SDS011;3211;53.452;-2.264;2023-05-16T00:29:15;10.53;;;2.57;;
6356;SDS011;3211;53.452;-2.264;2023-05-16T00:31:57;9.17;;;2.40;;
6356;SDS011;3211;53.452;-2.264;2023-05-16T00:34:40;4.90;;;2.43;;
6356;SDS011;3211;53.452;-2.264;2023-05-16T00:37:22;10.33;;;2.67;;
6356;SDS011;3211;53.452;-2.264;2023-05-16T00:40:04;10.07;;;2.50;;
6356;SDS011;3211;53.452;-2.264;2023-05-16T00:42:47;6.83;;;2.77;;
6356;SDS011;3211;53.452;-2.264;2023-05-16T00:45:29;10.83;;;2.70;;
6356;SDS011;3211;53.452;-2.264;2023-05-16T00:48:11;3.80;;;2.20;;
6356;SDS011;3211;53.452;-2.264;2023-05-16T00:50:56;9.53;;;2.70;;
6356;SDS011;3211;53.452;-2.264;2023-05-16T00:53:38;10.57;;;2.53;;
6356;SDS011;3211;53.452;-2.264;2023-05-16T00:56:20;4.77;;;2.30;;
6356;SDS011;3211;53.452;-2.264;2023-05-16T00:59:03;10.93;;;2.67;;
6356;SDS011;3211;53.452;-2.264;2023-05-16T01:01:45;9.03;;;2.60;;
6356;SDS011;3211;53.452;-2.264;2023-05-16T01:04:27;10.50;;;2.90;;
6356;SDS011;3211;53.452;-2.264;2023-05-16T01:07:12;11.20;;;2.27;;
6356;SDS011;3211;53.452;-2.264;2023-05-16T01:09:54;8.70;;;2.33;;
6356;SDS011;3211;53.452;-2.264;2023-05-16T01:12:36;9.00;;;2.87;;
6356;SDS011;3211;53.452;-2.264;2023-05-16T01:15:26;15.77;;;3.40;;
6356;SDS011;3211;53.452;-2.264;2023-05-16T01:18:12;13.70;;;2.70;;
6356;SDS011;3211;53.452;-2.264;2023-05-16T01:21:03;5.80;;;2.00;;
6356;SDS011;3211;53.452;-2.264;2023-05-16T01:23:54;10.17;;;2.60;;
6356;SDS011;3211;53.452;-2.264;2023-05-16T01:26:45;8.20;;;1.83;;
6356;SDS011;3211;53.452;-2.264;2023-05-16T01:29:27;7.50;;;2.40;;
6356;SDS011;3211;53.452;-2.264;2023-05-16T01:32:09;11.80;;;2.23;;
6356;SDS011;3211;53.452;-2.264;2023-05-16T01:34:53;8.40;;;2.37;;
6356;SDS011;3211;53.452;-2.264;2023-05-16T01:37:37;8.20;;;2.23;;
6356;SDS011;3211;53.452;-2.264;2023-05-16T01:40:24;6.60;;;2.50;;
6356;SDS011;3211;53.452;-2.264;2023-05-16T01:43:13;9.47;;;2.43;;
6356;SDS011;3211;53.452;-2.264;2023-05-16T01:46:02;9.07;;;2.53;;
6356;SDS011;3211;53.452;-2.264;2023-05-16T01:48:50;9.90;;;2.70;;
6356;SDS011;3211;53.452;-2.264;2023-05-16T01:51:40;7.37;;;3.60;;
6356;SDS011;3211;53.452;-2.264;2023-05-16T01:54:24;10.97;;;2.80;;
6356;SDS011;3211;53.452;-2.264;2023-05-16T01:57:08;8.90;;;3.20;;
6356;SDS011;3211;53.452;-2.264;2023-05-16T01:59:51;9.00;;;2.93;;
6356;SDS011;3211;53.452;-2.264;2023-05-16T02:02:34;8.70;;;2.43;;
6356;SDS011;3211;53.452;-2.264;2023-05-16T02:05:16;14.37;;;3.27;;
6356;SDS011;3211;53.452;-2.264;2023-05-16T02:07:58;9.83;;;3.20;;
6356;SDS011;3211;53.452;-2.264;2023-05-16T02:10:40;12.23;;;2.80;;
6356;SDS011;3211;53.452;-2.264;2023-05-16T02:13:22;12.43;;;3.50;;
6356;SDS011;3211;53.452;-2.264;2023-05-16T02:16:06;7.23;;;2.70;;
6356;SDS011;3211;53.452;-2.264;2023-05-16T02:18:47;7.80;;;3.10;;
6356;SDS011;3211;53.452;-2.264;2023-05-16T02:21:30;13.50;;;3.00;;
6356;SDS011;3211;53.452;-2.264;2023-05-16T02:24:12;9.30;;;2.57;;
6356;SDS011;3211;53.452;-2.264;2023-05-16T02:26:53;8.13;;;2.90;;
6356;SDS011;3211;53.452;-2.264;2023-05-16T02:29:35;15.17;;;3.17;;
6356;SDS011;3211;53.452;-2.264;2023-05-16T02:32:19;13.73;;;2.80;;
6356;SDS011;3211;53.452;-2.264;2023-05-16T02:35:01;10.40;;;4.40;;
6356;SDS011;3211;53.452;-2.264;2023-05-16T02:37:43;7.50;;;2.30;;
6356;SDS011;3211;53.452;-2.264;2023-05-16T02:40:25;15.03;;;3.10;;
6356;SDS011;3211;53.452;-2.264;2023-05-16T02:43:07;9.20;;;2.70;;
6356;SDS011;3211;53.452;-2.264;2023-05-16T02:45:49;16.27;;;2.70;;
6356;SDS011;3211;53.452;-2.264;2023-05-16T02:48:33;16.23;;;2.83;;
6356;SDS011;3211;53.452;-2.264;2023-05-16T02:51:15;11.73;;;3.00;;
6356;SDS011;3211;53.452;-2.264;2023-05-16T02:53:57;10.53;;;3.50;;
6356;SDS011;3211;53.452;-2.264;2023-05-16T02:56:40;14.57;;;3.33;;
6356;SDS011;3211;53.452;-2.264;2023-05-16T02:59:22;14.07;;;3.83;;
6356;SDS011;3211;53.452;-2.264;2023-05-16T03:02:05;13.03;;;3.20;;
6356;SDS011;3211;53.452;-2.264;2023-05-16T03:04:48;6.73;;;3.00;;
6356;SDS011;3211;53.452;-2.264;2023-05-16T03:07:30;13.03;;;3.97;;
6356;SDS011;3211;53.452;-2.264;2023-05-16T03:10:12;8.93;;;2.60;;
6356;SDS011;3211;53.452;-2.264;2023-05-16T03:12:54;10.03;;;2.77;;
6356;SDS011;3211;53.452;-2.264;2023-05-16T03:15:36;4.07;;;2.10;;
6356;SDS011;3211;53.452;-2.264;2023-05-16T03:18:18;15.37;;;2.80;;
6356;SDS011;3211;53.452;-2.264;2023-05-16T03:21:01;9.53;;;3.10;;
6356;SDS011;3211;53.452;-2.264;2023-05-16T03:23:44;5.83;;;2.27;;
6356;SDS011;3211;53.452;-2.264;2023-05-16T03:26:26;8.30;;;2.13;;
6356;SDS011;3211;53.452;-2.264;2023-05-16T03:29:07;12.83;;;2.50;;
6356;SDS011;3211;53.452;-2.264;2023-05-16T03:31:49;12.23;;;2.30;;
6356;SDS011;3211;53.452;-2.264;2023-05-16T03:34:31;8.17;;;2.30;;
6356;SDS011;3211;53.452;-2.264;2023-05-16T03:37:15;9.43;;;2.93;;
6356;SDS011;3211;53.452;-2.264;2023-05-16T03:39:57;18.87;;;3.43;;
6356;SDS011;3211;53.452;-2.264;2023-05-16T03:42:39;10.33;;;2.60;;
6356;SDS011;3211;53.452;-2.264;2023-05-16T03:45:21;8.97;;;2.23;;
6356;SDS011;3211;53.452;-2.264;2023-05-16T03:48:03;14.77;;;2.87;;
6356;SDS011;3211;53.452;-2.264;2023-05-16T03:50:45;11.60;;;3.43;;
6356;SDS011;3211;53.452;-2.264;2023-05-16T03:53:28;6.57;;;2.10;;
6356;SDS011;3211;53.452;-2.264;2023-05-16T03:56:10;17.33;;;2.33;;
6356;SDS011;3211;53.452;-2.264;2023-05-16T03:58:52;7.80;;;2.33;;
6356;SDS011;3211;53.452;-2.264;2023-05-16T04:01:34;10.00;;;2.73;;
6356;SDS011;3211;53.452;-2.264;2023-05-16T04:04:16;5.43;;;2.10;;
6356;SDS011;3211;53.452;-2.264;2023-05-16T04:06:59;8.83;;;2.50;;
6356;SDS011;3211;53.452;-2.264;2023-05-16T04:09:42;9.83;;;2.20;;
6356;SDS011;3211;53.452;-2.264;2023-05-16T04:12:25;8.97;;;2.23;;
6356;SDS011;3211;53.452;-2.264;2023-05-16T04:15:07;12.17;;;2.43;;
6356;SDS011;3211;53.452;-2.264;2023-05-16T04:17:50;4.13;;;1.90;;
6356;SDS011;3211;53.452;-2.264;2023-05-16T04:20:32;10.03;;;2.17;;
6356;SDS011;3211;53.452;-2.264;2023-05-16T04:23:14;9.70;;;2.97;;
6356;SDS011;3211;53.452;-2.264;2023-05-16T04:25:57;6.27;;;2.10;;
6356;SDS011;3211;53.452;-2.264;2023-05-16T04:28:41;5.57;;;2.20;;
6356;SDS011;3211;53.452;-2.264;2023-05-16T04:31:23;4.27;;;2.17;;
6356;SDS011;3211;53.452;-2.264;2023-05-16T04:34:06;7.63;;;2.57;;
6356;SDS011;3211;53.452;-2.264;2023-05-16T04:36:48;7.70;;;2.40;;
6356;SDS011;3211;53.452;-2.264;2023-05-16T04:39:30;8.23;;;2.57;;
6356;SDS011;3211;53.452;-2.264;2023-05-16T04:42:13;7.70;;;2.63;;
6356;SDS011;3211;53.452;-2.264;2023-05-16T04:44:55;7.70;;;1.90;;
6356;SDS011;3211;53.452;-2.264;2023-05-16T04:47:37;6.97;;;2.33;;
6356;SDS011;3211;53.452;-2.264;2023-05-16T04:50:22;9.17;;;2.00;;
6356;SDS011;3211;53.452;-2.264;2023-05-16T04:53:03;5.13;;;2.00;;
6356;SDS011;3211;53.452;-2.264;2023-05-16T04:55:45;7.43;;;2.20;;
6356;SDS011;3211;53.452;-2.264;2023-05-16T04:58:29;5.30;;;2.50;;
6356;SDS011;3211;53.452;-2.264;2023-05-16T05:01:11;7.40;;;2.70;;
6356;SDS011;3211;53.452;-2.264;2023-05-16T05:03:53;8.87;;;2.83;;
6356;SDS011;3211;53.452;-2.264;2023-05-16T05:06:35;7.43;;;2.40;;
6356;SDS011;3211;53.452;-2.264;2023-05-16T05:09:17;5.30;;;2.37;;
6356;SDS011;3211;53.452;-2.264;2023-05-16T05:11:59;7.80;;;2.07;;
6356;SDS011;3211;53.452;-2.264;2023-05-16T05:14:43;9.80;;;2.57;;
6356;SDS011;3211;53.452;-2.264;2023-05-16T05:17:25;4.60;;;2.27;;
6356;SDS011;3211;53.452;-2.264;2023-05-16T05:20:07;8.07;;;2.07;;
6356;SDS011;3211;53.452;-2.264;2023-05-16T05:22:52;10.60;;;2.30;;
6356;SDS011;3211;53.452;-2.264;2023-05-16T05:25:34;6.37;;;2.23;;
6356;SDS011;3211;53.452;-2.264;2023-05-16T05:28:16;10.17;;;2.50;;
6356;SDS011;3211;53.452;-2.264;2023-05-16T05:31:00;8.47;;;2.47;;
6356;SDS011;3211;53.452;-2.264;2023-05-16T05:33:43;12.60;;;2.40;;
6356;SDS011;3211;53.452;-2.264;2023-05-16T05:36:25;5.50;;;2.20;;
6356;SDS011;3211;53.452;-2.264;2023-05-16T05:39:07;7.23;;;2.90;;
6356;SDS011;3211;53.452;-2.264;2023-05-16T05:41:49;6.90;;;2.30;;
6356;SDS011;3211;53.452;-2.264;2023-05-16T05:44:31;13.27;;;2.60;;
6356;SDS011;3211;53.452;-2.264;2023-05-16T05:47:15;7.03;;;1.80;;
6356;SDS011;3211;53.452;-2.264;2023-05-16T05:49:57;7.50;;;2.30;;
6356;SDS011;3211;53.452;-2.264;2023-05-16T05:52:39;8.10;;;2.10;;
6356;SDS011;3211;53.452;-2.264;2023-05-16T05:55:21;8.40;;;2.40;;
6356;SDS011;3211;53.452;-2.264;2023-05-16T05:58:03;7.93;;;2.13;;
6356;SDS011;3211;53.452;-2.264;2023-05-16T06:00:45;8.50;;;2.97;;
6356;SDS011;3211;53.452;-2.264;2023-05-16T06:03:29;7.13;;;2.20;;
6356;SDS011;3211;53.452;-2.264;2023-05-16T06:06:11;11.03;;;2.63;;
6356;SDS011;3211;53.452;-2.264;2023-05-16T06:08:54;7.10;;;2.27;;
6356;SDS011;3211;53.452;-2.264;2023-05-16T06:11:36;5.37;;;2.50;;
6356;SDS011;3211;53.452;-2.264;2023-05-16T06:14:18;7.03;;;2.40;;
6356;SDS011;3211;53.452;-2.264;2023-05-16T06:17:00;11.80;;;2.37;;
6356;SDS011;3211;53.452;-2.264;2023-05-16T06:19:43;9.90;;;2.33;;
6356;SDS011;3211;53.452;-2.264;2023-05-16T06:22:26;10.90;;;3.07;;
6356;SDS011;3211;53.452;-2.264;2023-05-16T06:25:08;5.83;;;2.50;;
6356;SDS011;3211;53.452;-2.264;2023-05-16T06:27:50;6.53;;;2.23;;
6356;SDS011;3211;53.452;-2.264;2023-05-16T06:30:32;4.30;;;2.20;;
6356;SDS011;3211;53.452;-2.264;2023-05-16T06:33:14;11.13;;;3.17;;
6356;SDS011;3211;53.452;-2.264;2023-05-16T06:35:58;12.20;;;3.00;;
6356;SDS011;3211;53.452;-2.264;2023-05-16T06:38:40;11.77;;;2.63;;
6356;SDS011;3211;53.452;-2.264;2023-05-16T06:41:22;7.73;;;2.67;;
6356;SDS011;3211;53.452;-2.264;2023-05-16T06:44:05;8.77;;;2.40;;
6356;SDS011;3211;53.452;-2.264;2023-05-16T06:46:47;8.10;;;2.30;;
6356;SDS011;3211;53.452;-2.264;2023-05-16T06:49:29;8.97;;;4.80;;
6356;SDS011;3211;53.452;-2.264;2023-05-16T06:52:12;11.83;;;4.23;;
6356;SDS011;3211;53.452;-2.264;2023-05-16T06:54:54;8.17;;;2.80;;
6356;SDS011;3211;53.452;-2.264;2023-05-16T06:57:36;13.20;;;3.17;;
6356;SDS011;3211;53.452;-2.264;2023-05-16T07:00:19;4.47;;;2.20;;
6356;SDS011;3211;53.452;-2.264;2023-05-16T07:03:03;8.83;;;2.97;;
6356;SDS011;3211;53.452;-2.264;2023-05-16T07:05:46;4.83;;;2.30;;
6356;SDS011;3211;53.452;-2.264;2023-05-16T07:08:31;10.10;;;3.03;;
6356;SDS011;3211;53.452;-2.264;2023-05-16T07:11:15;7.50;;;2.67;;
6356;SDS011;3211;53.452;-2.264;2023-05-16T07:13:57;8.80;;;3.00;;
6356;SDS011;3211;53.452;-2.264;2023-05-16T07:16:39;9.70;;;2.90;;
6356;SDS011;3211;53.452;-2.264;2023-05-16T07:19:21;14.83;;;3.80;;
6356;SDS011;3211;53.452;-2.264;2023-05-16T07:22:03;9.23;;;3.23;;
6356;SDS011;3211;53.452;-2.264;2023-05-16T07:24:47;7.03;;;3.20;;
6356;SDS011;3211;53.452;-2.264;2023-05-16T07:27:29;20.80;;;4.33;;
6356;SDS011;3211;53.452;-2.264;2023-05-16T07:30:12;9.00;;;4.53;;
6356;SDS011;3211;53.452;-2.264;2023-05-16T07:32:54;9.63;;;3.47;;
6356;SDS011;3211;53.452;-2.264;2023-05-16T07:35:37;11.20;;;3.50;;
6356;SDS011;3211;53.452;-2.264;2023-05-16T07:38:19;9.13;;;3.90;;
6356;SDS011;3211;53.452;-2.264;2023-05-16T07:41:02;9.73;;;3.80;;
6356;SDS011;3211;53.452;-2.264;2023-05-16T07:43:45;10.57;;;3.80;;
6356;SDS011;3211;53.452;-2.264;2023-05-16T07:46:27;15.40;;;4.50;;
6356;SDS011;3211;53.452;-2.264;2023-05-16T07:49:09;9.87;;;3.60;;
6356;SDS011;3211;53.452;-2.264;2023-05-16T07:51:51;21.70;;;4.07;;
6356;SDS011;3211;53.452;-2.264;2023-05-16T07:54:33;10.60;;;5.27;;
6356;SDS011;3211;53.452;-2.264;2023-05-16T07:57:17;11.00;;;3.30;;
6356;SDS011;3211;53.452;-2.264;2023-05-16T08:00:00;12.63;;;4.57;;
6356;SDS011;3211;53.452;-2.264;2023-05-16T08:02:44;14.83;;;4.40;;
6356;SDS011;3211;53.452;-2.264;2023-05-16T08:05:26;9.63;;;4.17;;
6356;SDS011;3211;53.452;-2.264;2023-05-16T08:08:08;9.47;;;4.63;;
6356;SDS011;3211;53.452;-2.264;2023-05-16T08:10:50;10.03;;;4.50;;
6356;SDS011;3211;53.452;-2.264;2023-05-16T08:13:33;10.13;;;3.93;;
6356;SDS011;3211;53.452;-2.264;2023-05-16T08:16:15;12.30;;;4.20;;
6356;SDS011;3211;53.452;-2.264;2023-05-16T08:18:57;12.30;;;4.67;;
6356;SDS011;3211;53.452;-2.264;2023-05-16T08:21:40;15.63;;;5.07;;
6356;SDS011;3211;53.452;-2.264;2023-05-16T08:24:22;10.60;;;4.40;;
6356;SDS011;3211;53.452;-2.264;2023-05-16T08:27:04;14.23;;;4.93;;
6356;SDS011;3211;53.452;-2.264;2023-05-16T08:29:49;14.37;;;5.03;;
6356;SDS011;3211;53.452;-2.264;2023-05-16T08:32:33;13.00;;;4.97;;
6356;SDS011;3211;53.452;-2.264;2023-05-16T08:35:16;19.37;;;4.40;;
6356;SDS011;3211;53.452;-2.264;2023-05-16T08:37:58;10.97;;;4.60;;
6356;SDS011;3211;53.452;-2.264;2023-05-16T08:40:42;10.33;;;4.40;;
6356;SDS011;3211;53.452;-2.264;2023-05-16T08:43:26;23.17;;;5.17;;
6356;SDS011;3211;53.452;-2.264;2023-05-16T08:46:10;8.67;;;3.93;;
6356;SDS011;3211;53.452;-2.264;2023-05-16T08:48:58;13.00;;;3.80;;
6356;SDS011;3211;53.452;-2.264;2023-05-16T08:51:44;14.40;;;4.93;;
6356;SDS011;3211;53.452;-2.264;2023-05-16T08:54:27;14.77;;;5.10;;
6356;SDS011;3211;53.452;-2.264;2023-05-16T08:57:21;11.50;;;4.50;;
6356;SDS011;3211;53.452;-2.264;2023-05-16T09:00:04;13.57;;;4.20;;
6356;SDS011;3211;53.452;-2.264;2023-05-16T09:02:53;11.43;;;4.50;;
6356;SDS011;3211;53.452;-2.264;2023-05-16T09:05:35;13.17;;;5.00;;
6356;SDS011;3211;53.452;-2.264;2023-05-16T09:08:18;13.37;;;4.50;;
6356;SDS011;3211;53.452;-2.264;2023-05-16T09:11:00;12.70;;;4.90;;
6356;SDS011;3211;53.452;-2.264;2023-05-16T09:16:12;18.07;;;5.37;;
6356;SDS011;3211;53.452;-2.264;2023-05-16T09:18:57;13.93;;;4.50;;
6356;SDS011;3211;53.452;-2.264;2023-05-16T09:21:40;10.60;;;4.17;;
6356;SDS011;3211;53.452;-2.264;2023-05-16T09:24:22;13.90;;;5.17;;
6356;SDS011;3211;53.452;-2.264;2023-05-16T09:27:06;11.57;;;4.17;;
6356;SDS011;3211;53.452;-2.264;2023-05-16T09:29:49;10.43;;;4.37;;
6356;SDS011;3211;53.452;-2.264;2023-05-16T09:32:31;13.30;;;4.60;;
6356;SDS011;3211;53.452;-2.264;2023-05-16T09:35:15;11.30;;;5.03;;
6356;SDS011;3211;53.452;-2.264;2023-05-16T09:37:58;13.27;;;5.80;;
6356;SDS011;3211;53.452;-2.264;2023-05-16T09:40:40;10.80;;;4.90;;
6356;SDS011;3211;53.452;-2.264;2023-05-16T09:43:24;10.70;;;4.60;;
6356;SDS011;3211;53.452;-2.264;2023-05-16T09:46:06;11.47;;;4.23;;
6356;SDS011;3211;53.452;-2.264;2023-05-16T09:48:49;12.50;;;5.23;;
6356;SDS011;3211;53.452;-2.264;2023-05-16T09:51:33;13.60;;;4.00;;
6356;SDS011;3211;53.452;-2.264;2023-05-16T09:54:27;9.37;;;4.03;;
6356;SDS011;3211;53.452;-2.264;2023-05-16T09:57:11;14.50;;;4.93;;
6356;SDS011;3211;53.452;-2.264;2023-05-16T09:59:53;12.20;;;4.50;;
6356;SDS011;3211;53.452;-2.264;2023-05-16T10:02:40;12.90;;;4.37;;
6356;SDS011;3211;53.452;-2.264;2023-05-16T10:05:23;7.80;;;3.77;;
6356;SDS011;3211;53.452;-2.264;2023-05-16T10:08:09;15.23;;;4.67;;
6356;SDS011;3211;53.452;-2.264;2023-05-16T10:10:52;12.70;;;4.53;;
6356;SDS011;3211;53.452;-2.264;2023-05-16T10:13:36;16.73;;;4.80;;
6356;SDS011;3211;53.452;-2.264;2023-05-16T10:16:19;11.23;;;4.37;;
6356;SDS011;3211;53.452;-2.264;2023-05-16T10:19:03;12.50;;;4.83;;
6356;SDS011;3211;53.452;-2.264;2023-05-16T10:21:47;12.07;;;4.50;;
6356;SDS011;3211;53.452;-2.264;2023-05-16T10:24:36;18.47;;;4.70;;
6356;SDS011;3211;53.452;-2.264;2023-05-16T10:27:26;15.83;;;4.80;;
6356;SDS011;3211;53.452;-2.264;2023-05-16T10:30:10;13.20;;;4.63;;
6356;SDS011;3211;53.452;-2.264;2023-05-16T10:32:52;11.30;;;4.83;;
6356;SDS011;3211;53.452;-2.264;2023-05-16T10:35:35;11.27;;;4.17;;
6356;SDS011;3211;53.452;-2.264;2023-05-16T10:38:17;13.37;;;4.17;;
6356;SDS011;3211;53.452;-2.264;2023-05-16T10:41:02;9.63;;;3.97;;
6356;SDS011;3211;53.452;-2.264;2023-05-16T10:43:46;15.47;;;4.10;;
6356;SDS011;3211;53.452;-2.264;2023-05-16T10:46:36;12.97;;;3.93;;
6356;SDS011;3211;53.452;-2.264;2023-05-16T10:49:19;13.93;;;4.43;;
6356;SDS011;3211;53.452;-2.264;2023-05-16T10:52:04;17.30;;;4.17;;
6356;SDS011;3211;53.452;-2.264;2023-05-16T10:54:49;12.27;;;3.67;;
6356;SDS011;3211;53.452;-2.264;2023-05-16T10:57:33;7.83;;;4.20;;
6356;SDS011;3211;53.452;-2.264;2023-05-16T11:00:20;11.40;;;4.60;;
6356;SDS011;3211;53.452;-2.264;2023-05-16T11:03:03;16.00;;;4.63;;
6356;SDS011;3211;53.452;-2.264;2023-05-16T11:05:49;10.53;;;4.30;;
6356;SDS011;3211;53.452;-2.264;2023-05-16T11:08:33;10.07;;;3.47;;
6356;SDS011;3211;53.452;-2.264;2023-05-16T11:14:21;10.97;;;4.23;;
6356;SDS011;3211;53.452;-2.264;2023-05-16T11:17:08;9.27;;;3.60;;
6356;SDS011;3211;53.452;-2.264;2023-05-16T11:19:54;15.67;;;4.53;;
6356;SDS011;3211;53.452;-2.264;2023-05-16T11:22:38;14.30;;;4.10;;
6356;SDS011;3211;53.452;-2.264;2023-05-16T11:25:20;13.20;;;4.13;;
6356;SDS011;3211;53.452;-2.264;2023-05-16T11:28:18;14.77;;;4.90;;
6356;SDS011;3211;53.452;-2.264;2023-05-16T11:31:03;12.87;;;4.70;;
6356;SDS011;3211;53.452;-2.264;2023-05-16T11:33:46;13.97;;;4.10;;
6356;SDS011;3211;53.452;-2.264;2023-05-16T11:36:28;14.17;;;4.50;;
6356;SDS011;3211;53.452;-2.264;2023-05-16T11:39:11;17.63;;;3.83;;
6356;SDS011;3211;53.452;-2.264;2023-05-16T11:41:53;16.13;;;4.90;;
6356;SDS011;3211;53.452;-2.264;2023-05-16T11:44:35;15.40;;;4.40;;
6356;SDS011;3211;53.452;-2.264;2023-05-16T11:47:18;10.53;;;4.50;;
6356;SDS011;3211;53.452;-2.264;2023-05-16T11:50:02;14.37;;;4.20;;
6356;SDS011;3211;53.452;-2.264;2023-05-16T11:52:46;11.03;;;3.77;;
6356;SDS011;3211;53.452;-2.264;2023-05-16T11:55:29;11.30;;;4.37;;
6356;SDS011;3211;53.452;-2.264;2023-05-16T11:58:11;12.13;;;3.80;;
6356;SDS011;3211;53.452;-2.264;2023-05-16T12:00:53;14.77;;;6.20;;
6356;SDS011;3211;53.452;-2.264;2023-05-16T12:03:37;9.97;;;4.10;;
6356;SDS011;3211;53.452;-2.264;2023-05-16T12:06:19;17.20;;;5.07;;
6356;SDS011;3211;53.452;-2.264;2023-05-16T12:09:01;15.47;;;3.93;;
6356;SDS011;3211;53.452;-2.264;2023-05-16T12:11:49;10.10;;;4.63;;
6356;SDS011;3211;53.452;-2.264;2023-05-16T12:14:32;12.63;;;4.53;;
6356;SDS011;3211;53.452;-2.264;2023-05-16T12:17:15;18.30;;;4.90;;
6356;SDS011;3211;53.452;-2.264;2023-05-16T12:19:59;8.90;;;3.90;;
6356;SDS011;3211;53.452;-2.264;2023-05-16T12:22:41;11.60;;;4.13;;
6356;SDS011;3211;53.452;-2.264;2023-05-16T12:25:25;13.07;;;5.00;;
6356;SDS011;3211;53.452;-2.264;2023-05-16T12:28:08;11.73;;;4.30;;
6356;SDS011;3211;53.452;-2.264;2023-05-16T12:30:52;14.80;;;4.70;;
6356;SDS011;3211;53.452;-2.264;2023-05-16T12:33:36;12.80;;;4.43;;
6356;SDS011;3211;53.452;-2.264;2023-05-16T12:36:19;15.90;;;4.67;;
6356;SDS011;3211;53.452;-2.264;2023-05-16T12:39:02;17.77;;;4.70;;
6356;SDS011;3211;53.452;-2.264;2023-05-16T12:41:44;15.63;;;4.50;;
6356;SDS011;3211;53.452;-2.264;2023-05-16T12:44:28;14.10;;;5.67;;
6356;SDS011;3211;53.452;-2.264;2023-05-16T12:47:10;17.17;;;5.43;;
6356;SDS011;3211;53.452;-2.264;2023-05-16T12:49:52;16.57;;;4.70;;
6356;SDS011;3211;53.452;-2.264;2023-05-16T12:52:36;8.03;;;3.37;;
6356;SDS011;3211;53.452;-2.264;2023-05-16T12:55:18;14.73;;;4.83;;
6356;SDS011;3211;53.452;-2.264;2023-05-16T12:58:01;19.70;;;6.17;;
6356;SDS011;3211;53.452;-2.264;2023-05-16T13:00:44;14.37;;;3.83;;
6356;SDS011;3211;53.452;-2.264;2023-05-16T13:03:26;9.23;;;4.37;;
6356;SDS011;3211;53.452;-2.264;2023-05-16T13:06:08;12.53;;;4.90;;
6356;SDS011;3211;53.452;-2.264;2023-05-16T13:08:51;11.60;;;4.40;;
6356;SDS011;3211;53.452;-2.264;2023-05-16T13:11:33;13.00;;;4.20;;
6356;SDS011;3211;53.452;-2.264;2023-05-16T13:14:15;13.73;;;5.07;;
6356;SDS011;3211;53.452;-2.264;2023-05-16T13:16:57;12.03;;;4.47;;
6356;SDS011;3211;53.452;-2.264;2023-05-16T13:19:39;16.50;;;4.60;;
6356;SDS011;3211;53.452;-2.264;2023-05-16T13:22:21;8.80;;;4.07;;
6356;SDS011;3211;53.452;-2.264;2023-05-16T13:25:05;10.60;;;4.83;;
6356;SDS011;3211;53.452;-2.264;2023-05-16T13:27:47;9.70;;;4.10;;
6356;SDS011;3211;53.452;-2.264;2023-05-16T13:30:29;13.77;;;4.73;;
6356;SDS011;3211;53.452;-2.264;2023-05-16T13:33:12;10.93;;;4.30;;
6356;SDS011;3211;53.452;-2.264;2023-05-16T13:35:54;9.40;;;4.27;;
6356;SDS011;3211;53.452;-2.264;2023-05-16T13:38:36;12.80;;;4.77;;
6356;SDS011;3211;53.452;-2.264;2023-05-16T13:41:19;9.63;;;4.07;;
6356;SDS011;3211;53.452;-2.264;2023-05-16T13:44:01;16.40;;;5.37;;
6356;SDS011;3211;53.452;-2.264;2023-05-16T13:46:43;10.70;;;3.90;;
6356;SDS011;3211;53.452;-2.264;2023-05-16T13:49:26;9.23;;;3.80;;
6356;SDS011;3211;53.452;-2.264;2023-05-16T13:52:08;11.10;;;4.20;;
6356;SDS011;3211;53.452;-2.264;2023-05-16T13:54:50;11.40;;;3.93;;
6356;SDS011;3211;53.452;-2.264;2023-05-16T13:57:33;9.30;;;4.53;;
6356;SDS011;3211;53.452;-2.264;2023-05-16T14:00:15;11.57;;;4.07;;
6356;SDS011;3211;53.452;-2.264;2023-05-16T14:02:58;12.13;;;4.10;;
6356;SDS011;3211;53.452;-2.264;2023-05-16T14:05:40;11.57;;;4.07;;
6356;SDS011;3211;53.452;-2.264;2023-05-16T14:08:22;10.17;;;3.80;;
6356;SDS011;3211;53.452;-2.264;2023-05-16T14:11:04;10.00;;;4.00;;
6356;SDS011;3211;53.452;-2.264;2023-05-16T14:13:47;14.20;;;4.23;;
6356;SDS011;3211;53.452;-2.264;2023-05-16T14:16:29;9.03;;;3.30;;
6356;SDS011;3211;53.452;-2.264;2023-05-16T14:19:12;8.80;;;3.93;;
6356;SDS011;3211;53.452;-2.264;2023-05-16T14:21:54;9.63;;;3.67;;
6356;SDS011;3211;53.452;-2.264;2023-05-16T14:24:36;10.00;;;3.87;;
6356;SDS011;3211;53.452;-2.264;2023-05-16T14:27:18;6.57;;;3.30;;
6356;SDS011;3211;53.452;-2.264;2023-05-16T14:30:01;7.97;;;3.70;;
6356;SDS011;3211;53.452;-2.264;2023-05-16T14:32:44;14.30;;;3.77;;
6356;SDS011;3211;53.452;-2.264;2023-05-16T14:35:26;8.30;;;3.83;;
6356;SDS011;3211;53.452;-2.264;2023-05-16T14:38:08;6.60;;;3.60;;
6356;SDS011;3211;53.452;-2.264;2023-05-16T14:40:50;5.97;;;3.80;;
6356;SDS011;3211;53.452;-2.264;2023-05-16T14:43:32;9.33;;;3.90;;
6356;SDS011;3211;53.452;-2.264;2023-05-16T14:46:15;10.10;;;3.77;;
6356;SDS011;3211;53.452;-2.264;2023-05-16T14:48:57;8.23;;;3.50;;
6356;SDS011;3211;53.452;-2.264;2023-05-16T14:51:42;8.87;;;3.60;;
6356;SDS011;3211;53.452;-2.264;2023-05-16T14:54:28;12.40;;;3.90;;
6356;SDS011;3211;53.452;-2.264;2023-05-16T14:57:10;7.77;;;3.83;;
6356;SDS011;3211;53.452;-2.264;2023-05-16T14:59:52;11.80;;;4.27;;
6356;SDS011;3211;53.452;-2.264;2023-05-16T15:02:35;8.70;;;3.90;;
6356;SDS011;3211;53.452;-2.264;2023-05-16T15:05:17;9.30;;;3.80;;
6356;SDS011;3211;53.452;-2.264;2023-05-16T15:07:59;10.33;;;4.13;;
6356;SDS011;3211;53.452;-2.264;2023-05-16T15:10:41;13.47;;;3.80;;
6356;SDS011;3211;53.452;-2.264;2023-05-16T15:13:23;10.70;;;4.10;;
6356;SDS011;3211;53.452;-2.264;2023-05-16T15:16:05;9.77;;;4.67;;
6356;SDS011;3211;53.452;-2.264;2023-05-16T15:18:49;7.53;;;3.77;;
6356;SDS011;3211;53.452;-2.264;2023-05-16T15:21:31;10.00;;;3.97;;
6356;SDS011;3211;53.452;-2.264;2023-05-16T15:24:13;10.87;;;3.73;;
6356;SDS011;3211;53.452;-2.264;2023-05-16T15:26:55;9.00;;;3.67;;
6356;SDS011;3211;53.452;-2.264;2023-05-16T15:29:37;8.13;;;3.80;;
6356;SDS011;3211;53.452;-2.264;2023-05-16T15:32:19;8.80;;;3.37;;
6356;SDS011;3211;53.452;-2.264;2023-05-16T15:35:04;7.57;;;3.57;;
6356;SDS011;3211;53.452;-2.264;2023-05-16T15:37:46;8.60;;;3.30;;
6356;SDS011;3211;53.452;-2.264;2023-05-16T15:40:28;10.53;;;3.73;;
6356;SDS011;3211;53.452;-2.264;2023-05-16T15:43:10;12.43;;;4.10;;
6356;SDS011;3211;53.452;-2.264;2023-05-16T15:45:52;11.45;;;3.58;;
6356;SDS011;3211;53.452;-2.264;2023-05-16T15:48:34;4.50;;;3.30;;
6356;SDS011;3211;53.452;-2.264;2023-05-16T15:51:17;7.27;;;3.80;;
6356;SDS011;3211;53.452;-2.264;2023-05-16T15:54:00;7.40;;;3.03;;
6356;SDS011;3211;53.452;-2.264;2023-05-16T15:56:42;4.67;;;2.90;;
6356;SDS011;3211;53.452;-2.264;2023-05-16T15:59:24;9.60;;;3.57;;
6356;SDS011;3211;53.452;-2.264;2023-05-16T16:02:06;9.87;;;3.13;;
6356;SDS011;3211;53.452;-2.264;2023-05-16T16:04:48;6.60;;;3.50;;
6356;SDS011;3211;53.452;-2.264;2023-05-16T16:07:32;9.10;;;3.60;;
6356;SDS011;3211;53.452;-2.264;2023-05-16T16:10:14;9.13;;;3.70;;
6356;SDS011;3211;53.452;-2.264;2023-05-16T16:12:58;7.40;;;3.27;;
6356;SDS011;3211;53.452;-2.264;2023-05-16T16:15:41;5.23;;;3.33;;
6356;SDS011;3211;53.452;-2.264;2023-05-16T16:18:23;7.00;;;3.63;;
6356;SDS011;3211;53.452;-2.264;2023-05-16T16:21:05;5.67;;;3.10;;
6356;SDS011;3211;53.452;-2.264;2023-05-16T16:23:50;5.33;;;2.83;;
6356;SDS011;3211;53.452;-2.264;2023-05-16T16:26:32;11.87;;;3.50;;
6356;SDS011;3211;53.452;-2.264;2023-05-16T16:29:14;4.83;;;2.87;;
6356;SDS011;3211;53.452;-2.264;2023-05-16T16:31:57;8.33;;;3.30;;
6356;SDS011;3211;53.452;-2.264;2023-05-16T16:34:39;8.53;;;2.73;;